sensor_id;sensor_type;location;lat;lon;timestamp;pressure;altitude;pressure_sealevel;temperature;humidity
23733;BME280;12047;53.450;-2.286;2023-08-20T00:04:40;101391.19;;;22.84;100.00
23733;BME280;12047;53.450;-2.286;2023-08-20T00:09:42;101391.06;;;22.64;100.00
23733;BME280;12047;53.450;-2.286;2023-08-20T00:14:55;101390.38;;;22.56;100.00
23733;BME280;12047;53.450;-2.286;2023-08-20T00:20:10;101380.22;;;22.51;100.00
23733;BME280;12047;53.450;-2.286;2023-08-20T00:25:14;101406.72;;;22.76;100.00
23733;BME280;12047;53.450;-2.286;2023-08-20T00:30:14;101412.03;;;23.03;100.00
23733;BME280;12047;53.450;-2.286;2023-08-20T00:35:15;101421.63;;;23.13;100.00
23733;BME280;12047;53.450;-2.286;2023-08-20T00:40:16;101420.19;;;22.69;100.00
23733;BME280;12047;53.450;-2.286;2023-08-20T00:45:16;101415.38;;;23.05;100.00
23733;BME280;12047;53.450;-2.286;2023-08-20T00:50:17;101409.84;;;22.79;100.00
23733;BME280;12047;53.450;-2.286;2023-08-20T00:55:18;101425.44;;;23.25;100.00
23733;BME280;12047;53.450;-2.286;2023-08-20T01:00:20;101425.03;;;22.80;100.00
23733;BME280;12047;53.450;-2.286;2023-08-20T01:05:21;101424.31;;;23.06;100.00
23733;BME280;12047;53.450;-2.286;2023-08-20T01:15:30;101428.69;;;23.07;100.00
23733;BME280;12047;53.450;-2.286;2023-08-20T01:20:34;101435.31;;;22.98;100.00
23733;BME280;12047;53.450;-2.286;2023-08-20T01:31:06;101443.06;;;23.14;100.00
23733;BME280;12047;53.450;-2.286;2023-08-20T01:36:08;101437.81;;;22.99;100.00
23733;BME280;12047;53.450;-2.286;2023-08-20T01:41:09;101440.31;;;22.66;100.00
23733;BME280;12047;53.450;-2.286;2023-08-20T01:46:10;101439.00;;;22.90;100.00
23733;BME280;12047;53.450;-2.286;2023-08-20T01:51:12;101447.06;;;23.38;100.00
23733;BME280;12047;53.450;-2.286;2023-08-20T01:56:13;101445.78;;;23.21;100.00
23733;BME280;12047;53.450;-2.286;2023-08-20T02:01:14;101443.53;;;23.24;100.00
23733;BME280;12047;53.450;-2.286;2023-08-20T02:06:14;101440.97;;;22.68;100.00
23733;BME280;12047;53.450;-2.286;2023-08-20T02:11:15;101445.63;;;22.81;100.00
23733;BME280;12047;53.450;-2.286;2023-08-20T02:16:15;101453.00;;;22.66;100.00
23733;BME280;12047;53.450;-2.286;2023-08-20T02:21:17;101461.44;;;22.56;100.00
23733;BME280;12047;53.450;-2.286;2023-08-20T02:26:17;101461.78;;;22.74;100.00
23733;BME280;12047;53.450;-2.286;2023-08-20T02:31:18;101463.00;;;22.37;100.00
23733;BME280;12047;53.450;-2.286;2023-08-20T02:36:18;101473.72;;;22.59;100.00
23733;BME280;12047;53.450;-2.286;2023-08-20T02:41:19;101476.06;;;22.68;100.00
23733;BME280;12047;53.450;-2.286;2023-08-20T02:46:19;101476.59;;;22.23;100.00
23733;BME280;12047;53.450;-2.286;2023-08-20T02:51:20;101470.13;;;22.45;100.00
23733;BME280;12047;53.450;-2.286;2023-08-20T02:56:20;101478.31;;;22.30;100.00
23733;BME280;12047;53.450;-2.286;2023-08-20T03:01:22;101477.94;;;22.68;100.00
23733;BME280;12047;53.450;-2.286;2023-08-20T03:06:23;101484.78;;;22.64;100.00
23733;BME280;12047;53.450;-2.286;2023-08-20T03:11:24;101494.69;;;22.29;100.00
23733;BME280;12047;53.450;-2.286;2023-08-20T03:16:24;101496.53;;;22.22;100.00
23733;BME280;12047;53.450;-2.286;2023-08-20T03:21:25;101502.31;;;22.19;100.00
23733;BME280;12047;53.450;-2.286;2023-08-20T03:26:25;101492.22;;;22.06;100.00
23733;BME280;12047;53.450;-2.286;2023-08-20T03:31:26;101496.91;;;21.97;100.00
23733;BME280;12047;53.450;-2.286;2023-08-20T03:36:26;101511.59;;;22.37;100.00
23733;BME280;12047;53.450;-2.286;2023-08-20T03:41:27;101502.84;;;22.35;100.00
23733;BME280;12047;53.450;-2.286;2023-08-20T03:46:27;101510.41;;;21.97;100.00
23733;BME280;12047;53.450;-2.286;2023-08-20T03:51:28;101521.69;;;22.01;100.00
23733;BME280;12047;53.450;-2.286;2023-08-20T03:56:28;101522.78;;;22.34;100.00
23733;BME280;12047;53.450;-2.286;2023-08-20T04:01:29;101524.56;;;22.49;100.00
23733;BME280;12047;53.450;-2.286;2023-08-20T04:06:29;101522.03;;;22.19;100.00
23733;BME280;12047;53.450;-2.286;2023-08-20T04:11:30;101521.88;;;21.85;100.00
23733;BME280;12047;53.450;-2.286;2023-08-20T04:16:30;101523.53;;;22.22;100.00
23733;BME280;12047;53.450;-2.286;2023-08-20T04:21:31;101525.50;;;22.13;100.00
23733;BME280;12047;53.450;-2.286;2023-08-20T04:26:31;101532.06;;;22.04;100.00
23733;BME280;12047;53.450;-2.286;2023-08-20T04:31:32;101533.47;;;22.00;100.00
23733;BME280;12047;53.450;-2.286;2023-08-20T04:36:32;101534.44;;;21.92;100.00
23733;BME280;12047;53.450;-2.286;2023-08-20T04:41:33;101533.69;;;22.48;100.00
23733;BME280;12047;53.450;-2.286;2023-08-20T04:46:33;101541.19;;;22.03;100.00
23733;BME280;12047;53.450;-2.286;2023-08-20T04:51:33;101537.47;;;22.25;100.00
23733;BME280;12047;53.450;-2.286;2023-08-20T04:56:34;101554.06;;;22.22;100.00
23733;BME280;12047;53.450;-2.286;2023-08-20T05:01:34;101547.78;;;22.71;100.00
23733;BME280;12047;53.450;-2.286;2023-08-20T05:06:35;101544.78;;;22.31;100.00
23733;BME280;12047;53.450;-2.286;2023-08-20T05:11:35;101558.28;;;22.59;100.00
23733;BME280;12047;53.450;-2.286;2023-08-20T05:16:36;101550.78;;;22.83;100.00
23733;BME280;12047;53.450;-2.286;2023-08-20T05:21:36;101562.59;;;22.26;100.00
23733;BME280;12047;53.450;-2.286;2023-08-20T05:26:37;101573.06;;;22.85;100.00
23733;BME280;12047;53.450;-2.286;2023-08-20T05:31:37;101575.88;;;22.49;100.00
23733;BME280;12047;53.450;-2.286;2023-08-20T05:36:38;101575.69;;;22.08;100.00
23733;BME280;12047;53.450;-2.286;2023-08-20T05:41:39;101580.03;;;22.02;100.00
23733;BME280;12047;53.450;-2.286;2023-08-20T05:46:39;101588.78;;;22.25;100.00
23733;BME280;12047;53.450;-2.286;2023-08-20T05:51:40;101588.38;;;22.50;100.00
23733;BME280;12047;53.450;-2.286;2023-08-20T05:56:41;101594.13;;;22.04;100.00
23733;BME280;12047;53.450;-2.286;2023-08-20T06:01:41;101595.19;;;22.24;100.00
23733;BME280;12047;53.450;-2.286;2023-08-20T06:06:43;101594.16;;;22.25;100.00
23733;BME280;12047;53.450;-2.286;2023-08-20T06:11:43;101595.91;;;22.61;100.00
23733;BME280;12047;53.450;-2.286;2023-08-20T06:16:44;101603.25;;;22.03;100.00
23733;BME280;12047;53.450;-2.286;2023-08-20T06:21:45;101607.06;;;22.51;100.00
23733;BME280;12047;53.450;-2.286;2023-08-20T06:26:45;101616.25;;;22.35;100.00
23733;BME280;12047;53.450;-2.286;2023-08-20T06:31:45;101617.41;;;22.69;100.00
23733;BME280;12047;53.450;-2.286;2023-08-20T06:36:47;101630.91;;;22.69;100.00
23733;BME280;12047;53.450;-2.286;2023-08-20T06:41:47;101628.97;;;22.63;100.00
23733;BME280;12047;53.450;-2.286;2023-08-20T06:46:48;101630.38;;;23.08;100.00
23733;BME280;12047;53.450;-2.286;2023-08-20T06:51:49;101623.09;;;23.08;100.00
23733;BME280;12047;53.450;-2.286;2023-08-20T06:56:49;101628.41;;;23.23;100.00
23733;BME280;12047;53.450;-2.286;2023-08-20T07:01:49;101640.28;;;22.73;100.00
23733;BME280;12047;53.450;-2.286;2023-08-20T07:06:51;101642.28;;;23.14;100.00
23733;BME280;12047;53.450;-2.286;2023-08-20T07:11:51;101643.44;;;23.04;100.00
23733;BME280;12047;53.450;-2.286;2023-08-20T07:16:52;101646.81;;;23.41;100.00
23733;BME280;12047;53.450;-2.286;2023-08-20T07:21:52;101643.84;;;23.64;100.00
23733;BME280;12047;53.450;-2.286;2023-08-20T07:26:53;101643.22;;;22.99;100.00
23733;BME280;12047;53.450;-2.286;2023-08-20T07:37:03;101649.81;;;23.53;100.00
23733;BME280;12047;53.450;-2.286;2023-08-20T07:42:05;101653.34;;;23.94;100.00
23733;BME280;12047;53.450;-2.286;2023-08-20T07:47:05;101664.38;;;23.93;100.00
23733;BME280;12047;53.450;-2.286;2023-08-20T07:52:06;101670.06;;;23.35;100.00
23733;BME280;12047;53.450;-2.286;2023-08-20T07:57:06;101665.78;;;23.48;100.00
23733;BME280;12047;53.450;-2.286;2023-08-20T08:02:07;101673.47;;;23.44;100.00
23733;BME280;12047;53.450;-2.286;2023-08-20T08:07:07;101687.03;;;23.51;100.00
23733;BME280;12047;53.450;-2.286;2023-08-20T08:12:08;101683.50;;;23.91;100.00
23733;BME280;12047;53.450;-2.286;2023-08-20T08:17:08;101685.94;;;24.27;100.00
23733;BME280;12047;53.450;-2.286;2023-08-20T08:22:09;101696.75;;;24.27;100.00
23733;BME280;12047;53.450;-2.286;2023-08-20T08:27:09;101710.63;;;23.98;100.00
23733;BME280;12047;53.450;-2.286;2023-08-20T08:32:10;101706.13;;;23.77;100.00
23733;BME280;12047;53.450;-2.286;2023-08-20T08:37:11;101700.38;;;23.52;100.00
23733;BME280;12047;53.450;-2.286;2023-08-20T08:42:11;101700.25;;;24.15;100.00
23733;BME280;12047;53.450;-2.286;2023-08-20T08:47:13;101704.59;;;24.90;100.00
23733;BME280;12047;53.450;-2.286;2023-08-20T08:52:13;101708.31;;;24.75;100.00
23733;BME280;12047;53.450;-2.286;2023-08-20T08:57:15;101707.69;;;25.46;100.00
23733;BME280;12047;53.450;-2.286;2023-08-20T09:02:17;101714.34;;;25.50;100.00
23733;BME280;12047;53.450;-2.286;2023-08-20T09:07:17;101720.84;;;25.29;100.00
23733;BME280;12047;53.450;-2.286;2023-08-20T09:12:19;101717.72;;;25.39;100.00
23733;BME280;12047;53.450;-2.286;2023-08-20T09:17:19;101707.81;;;25.77;100.00
23733;BME280;12047;53.450;-2.286;2023-08-20T09:22:21;101705.31;;;25.83;100.00
23733;BME280;12047;53.450;-2.286;2023-08-20T09:27:23;101698.94;;;26.08;100.00
23733;BME280;12047;53.450;-2.286;2023-08-20T09:32:25;101696.94;;;26.35;100.00
23733;BME280;12047;53.450;-2.286;2023-08-20T09:37:26;101697.38;;;26.32;100.00
23733;BME280;12047;53.450;-2.286;2023-08-20T09:42:27;101690.44;;;25.92;100.00
23733;BME280;12047;53.450;-2.286;2023-08-20T09:47:32;101693.22;;;26.61;100.00
23733;BME280;12047;53.450;-2.286;2023-08-20T09:52:39;101688.66;;;25.59;100.00
23733;BME280;12047;53.450;-2.286;2023-08-20T09:57:41;101686.06;;;26.29;100.00
23733;BME280;12047;53.450;-2.286;2023-08-20T10:02:42;101692.25;;;26.74;100.00
23733;BME280;12047;53.450;-2.286;2023-08-20T10:07:43;101692.94;;;28.29;100.00
23733;BME280;12047;53.450;-2.286;2023-08-20T10:12:44;101683.31;;;27.78;100.00
23733;BME280;12047;53.450;-2.286;2023-08-20T10:17:45;101685.81;;;27.43;100.00
23733;BME280;12047;53.450;-2.286;2023-08-20T10:22:50;101673.72;;;26.96;100.00
23733;BME280;12047;53.450;-2.286;2023-08-20T10:27:51;101682.91;;;27.20;100.00
23733;BME280;12047;53.450;-2.286;2023-08-20T10:38:06;101681.09;;;27.14;100.00
23733;BME280;12047;53.450;-2.286;2023-08-20T10:43:06;101693.63;;;27.15;100.00
23733;BME280;12047;53.450;-2.286;2023-08-20T10:48:08;101684.50;;;27.70;100.00
23733;BME280;12047;53.450;-2.286;2023-08-20T10:53:11;101680.34;;;27.98;100.00
23733;BME280;12047;53.450;-2.286;2023-08-20T10:58:12;101672.56;;;28.31;100.00
23733;BME280;12047;53.450;-2.286;2023-08-20T11:03:14;101670.69;;;29.20;100.00
23733;BME280;12047;53.450;-2.286;2023-08-20T11:08:14;101672.44;;;28.68;100.00
23733;BME280;12047;53.450;-2.286;2023-08-20T11:13:15;101665.72;;;29.05;100.00
23733;BME280;12047;53.450;-2.286;2023-08-20T11:18:16;101648.03;;;28.96;100.00
23733;BME280;12047;53.450;-2.286;2023-08-20T11:23:17;101648.72;;;28.80;100.00
23733;BME280;12047;53.450;-2.286;2023-08-20T11:28:17;101653.84;;;29.47;96.22
23733;BME280;12047;53.450;-2.286;2023-08-20T11:33:18;101641.41;;;29.16;97.93
23733;BME280;12047;53.450;-2.286;2023-08-20T11:38:21;101643.00;;;28.58;97.94
23733;BME280;12047;53.450;-2.286;2023-08-20T11:43:23;101642.44;;;29.26;97.25
23733;BME280;12047;53.450;-2.286;2023-08-20T11:48:24;101636.72;;;29.51;95.24
23733;BME280;12047;53.450;-2.286;2023-08-20T11:53:24;101638.22;;;29.19;92.43
23733;BME280;12047;53.450;-2.286;2023-08-20T11:58:28;101648.06;;;29.20;90.24
23733;BME280;12047;53.450;-2.286;2023-08-20T12:03:29;101651.84;;;29.07;94.22
23733;BME280;12047;53.450;-2.286;2023-08-20T12:08:37;101654.09;;;29.10;94.63
23733;BME280;12047;53.450;-2.286;2023-08-20T12:13:38;101662.50;;;28.97;92.36
23733;BME280;12047;53.450;-2.286;2023-08-20T12:18:39;101647.28;;;29.59;87.61
23733;BME280;12047;53.450;-2.286;2023-08-20T12:23:39;101650.66;;;29.15;89.00
23733;BME280;12047;53.450;-2.286;2023-08-20T12:28:40;101649.34;;;29.81;86.43
23733;BME280;12047;53.450;-2.286;2023-08-20T12:33:42;101652.41;;;29.32;87.45
23733;BME280;12047;53.450;-2.286;2023-08-20T12:38:44;101646.47;;;29.99;90.42
23733;BME280;12047;53.450;-2.286;2023-08-20T12:43:44;101659.16;;;29.53;89.97
23733;BME280;12047;53.450;-2.286;2023-08-20T12:48:44;101667.25;;;28.36;95.68
23733;BME280;12047;53.450;-2.286;2023-08-20T12:53:45;101671.91;;;28.89;95.73
23733;BME280;12047;53.450;-2.286;2023-08-20T12:58:45;101668.97;;;28.61;100.00
23733;BME280;12047;53.450;-2.286;2023-08-20T13:03:46;101676.78;;;28.46;100.00
23733;BME280;12047;53.450;-2.286;2023-08-20T13:08:47;101680.69;;;28.50;100.00
23733;BME280;12047;53.450;-2.286;2023-08-20T13:13:51;101693.06;;;28.04;100.00
23733;BME280;12047;53.450;-2.286;2023-08-20T13:18:55;101701.03;;;27.26;100.00
23733;BME280;12047;53.450;-2.286;2023-08-20T13:23:55;101698.63;;;26.93;100.00
23733;BME280;12047;53.450;-2.286;2023-08-20T13:28:56;101700.00;;;27.70;100.00
23733;BME280;12047;53.450;-2.286;2023-08-20T13:33:57;101696.53;;;27.56;100.00
23733;BME280;12047;53.450;-2.286;2023-08-20T13:38:57;101706.03;;;27.29;100.00
23733;BME280;12047;53.450;-2.286;2023-08-20T13:44:01;101700.94;;;26.89;100.00
23733;BME280;12047;53.450;-2.286;2023-08-20T13:49:05;101711.97;;;27.99;100.00
23733;BME280;12047;53.450;-2.286;2023-08-20T13:54:06;101698.69;;;28.81;100.00
23733;BME280;12047;53.450;-2.286;2023-08-20T13:59:09;101696.94;;;29.09;100.00
23733;BME280;12047;53.450;-2.286;2023-08-20T14:04:10;101685.53;;;29.59;100.00
23733;BME280;12047;53.450;-2.286;2023-08-20T14:09:10;101689.97;;;28.72;100.00
23733;BME280;12047;53.450;-2.286;2023-08-20T14:14:11;101683.50;;;28.96;100.00
23733;BME280;12047;53.450;-2.286;2023-08-20T14:19:11;101686.59;;;29.35;100.00
23733;BME280;12047;53.450;-2.286;2023-08-20T14:24:11;101678.88;;;28.85;100.00
23733;BME280;12047;53.450;-2.286;2023-08-20T14:29:12;101681.75;;;29.14;91.28
23733;BME280;12047;53.450;-2.286;2023-08-20T14:34:13;101667.94;;;29.55;92.70
23733;BME280;12047;53.450;-2.286;2023-08-20T14:39:13;101672.47;;;29.38;86.53
23733;BME280;12047;53.450;-2.286;2023-08-20T14:44:14;101674.97;;;28.81;83.42
23733;BME280;12047;53.450;-2.286;2023-08-20T14:49:16;101673.69;;;28.54;83.61
23733;BME280;12047;53.450;-2.286;2023-08-20T14:54:18;101674.84;;;29.23;86.98
23733;BME280;12047;53.450;-2.286;2023-08-20T14:59:19;101671.41;;;28.81;83.22
23733;BME280;12047;53.450;-2.286;2023-08-20T15:04:20;101670.47;;;28.87;81.71
23733;BME280;12047;53.450;-2.286;2023-08-20T15:09:21;101673.94;;;28.94;81.91
23733;BME280;12047;53.450;-2.286;2023-08-20T15:14:22;101665.81;;;29.34;78.68
23733;BME280;12047;53.450;-2.286;2023-08-20T15:19:23;101664.75;;;29.58;81.07
23733;BME280;12047;53.450;-2.286;2023-08-20T15:24:23;101661.19;;;29.58;78.07
23733;BME280;12047;53.450;-2.286;2023-08-20T15:29:24;101658.63;;;29.79;72.15
23733;BME280;12047;53.450;-2.286;2023-08-20T15:34:24;101653.22;;;29.68;76.22
23733;BME280;12047;53.450;-2.286;2023-08-20T15:39:25;101652.97;;;29.69;75.79
23733;BME280;12047;53.450;-2.286;2023-08-20T15:44:25;101651.06;;;30.72;75.70
23733;BME280;12047;53.450;-2.286;2023-08-20T15:49:26;101645.16;;;29.38;73.51
23733;BME280;12047;53.450;-2.286;2023-08-20T15:54:28;101649.91;;;30.23;75.98
23733;BME280;12047;53.450;-2.286;2023-08-20T15:59:28;101641.34;;;30.02;72.87
23733;BME280;12047;53.450;-2.286;2023-08-20T16:04:32;101633.47;;;30.06;73.33
23733;BME280;12047;53.450;-2.286;2023-08-20T16:09:33;101628.47;;;29.74;75.70
23733;BME280;12047;53.450;-2.286;2023-08-20T16:14:34;101635.34;;;29.02;74.96
23733;BME280;12047;53.450;-2.286;2023-08-20T16:19:35;101635.81;;;29.22;74.87
23733;BME280;12047;53.450;-2.286;2023-08-20T16:24:36;101638.09;;;28.90;78.13
23733;BME280;12047;53.450;-2.286;2023-08-20T16:29:36;101629.19;;;28.83;78.32
23733;BME280;12047;53.450;-2.286;2023-08-20T16:34:37;101630.34;;;28.64;79.64
23733;BME280;12047;53.450;-2.286;2023-08-20T16:39:37;101635.72;;;28.82;79.86
23733;BME280;12047;53.450;-2.286;2023-08-20T16:44:38;101635.97;;;28.09;79.73
23733;BME280;12047;53.450;-2.286;2023-08-20T16:49:43;101639.63;;;28.98;79.13
23733;BME280;12047;53.450;-2.286;2023-08-20T16:54:46;101644.22;;;27.72;82.04
23733;BME280;12047;53.450;-2.286;2023-08-20T16:59:47;101650.06;;;28.36;81.28
23733;BME280;12047;53.450;-2.286;2023-08-20T17:04:48;101651.47;;;28.68;81.96
23733;BME280;12047;53.450;-2.286;2023-08-20T17:09:49;101652.06;;;28.29;88.19
23733;BME280;12047;53.450;-2.286;2023-08-20T17:14:50;101641.22;;;28.40;87.80
23733;BME280;12047;53.450;-2.286;2023-08-20T17:19:50;101655.34;;;28.19;89.25
23733;BME280;12047;53.450;-2.286;2023-08-20T17:24:51;101647.25;;;28.42;86.37
23733;BME280;12047;53.450;-2.286;2023-08-20T17:29:51;101658.91;;;28.20;88.27
23733;BME280;12047;53.450;-2.286;2023-08-20T17:34:52;101656.63;;;27.87;89.66
23733;BME280;12047;53.450;-2.286;2023-08-20T17:39:52;101670.34;;;27.62;90.12
23733;BME280;12047;53.450;-2.286;2023-08-20T17:44:53;101664.53;;;27.52;91.26
23733;BME280;12047;53.450;-2.286;2023-08-20T17:49:53;101677.22;;;27.64;94.47
23733;BME280;12047;53.450;-2.286;2023-08-20T17:54:54;101674.53;;;28.42;88.12
23733;BME280;12047;53.450;-2.286;2023-08-20T17:59:54;101679.09;;;27.82;91.40
23733;BME280;12047;53.450;-2.286;2023-08-20T18:04:55;101686.59;;;27.68;89.53
23733;BME280;12047;53.450;-2.286;2023-08-20T18:09:55;101690.22;;;27.81;88.14
23733;BME280;12047;53.450;-2.286;2023-08-20T18:14:56;101692.19;;;27.73;87.52
23733;BME280;12047;53.450;-2.286;2023-08-20T18:19:57;101701.31;;;27.79;88.82
23733;BME280;12047;53.450;-2.286;2023-08-20T18:24:57;101704.13;;;27.91;92.13
23733;BME280;12047;53.450;-2.286;2023-08-20T18:29:58;101701.16;;;27.56;96.11
23733;BME280;12047;53.450;-2.286;2023-08-20T18:34:59;101709.75;;;26.85;95.99
23733;BME280;12047;53.450;-2.286;2023-08-20T18:39:59;101710.75;;;27.40;96.23
23733;BME280;12047;53.450;-2.286;2023-08-20T18:45:00;101719.88;;;27.70;94.23
23733;BME280;12047;53.450;-2.286;2023-08-20T18:50:00;101720.25;;;27.31;97.26
23733;BME280;12047;53.450;-2.286;2023-08-20T18:55:01;101719.78;;;27.59;100.00
23733;BME280;12047;53.450;-2.286;2023-08-20T19:00:03;101728.59;;;27.36;100.00
23733;BME280;12047;53.450;-2.286;2023-08-20T19:05:06;101732.00;;;27.06;100.00
23733;BME280;12047;53.450;-2.286;2023-08-20T19:10:07;101732.38;;;27.35;100.00
23733;BME280;12047;53.450;-2.286;2023-08-20T19:15:08;101741.38;;;27.54;100.00
23733;BME280;12047;53.450;-2.286;2023-08-20T19:20:10;101741.94;;;27.19;100.00
23733;BME280;12047;53.450;-2.286;2023-08-20T19:25:11;101754.31;;;27.15;100.00
23733;BME280;12047;53.450;-2.286;2023-08-20T19:30:12;101758.41;;;26.99;100.00
23733;BME280;12047;53.450;-2.286;2023-08-20T19:35:12;101768.16;;;27.14;100.00
23733;BME280;12047;53.450;-2.286;2023-08-20T19:40:13;101777.28;;;26.56;100.00
23733;BME280;12047;53.450;-2.286;2023-08-20T19:45:13;101778.72;;;26.21;100.00
23733;BME280;12047;53.450;-2.286;2023-08-20T19:50:14;101779.81;;;26.51;100.00
23733;BME280;12047;53.450;-2.286;2023-08-20T19:55:14;101784.03;;;25.89;100.00
23733;BME280;12047;53.450;-2.286;2023-08-20T20:00:15;101793.66;;;25.59;100.00
23733;BME280;12047;53.450;-2.286;2023-08-20T20:05:16;101784.84;;;25.96;100.00
23733;BME280;12047;53.450;-2.286;2023-08-20T20:10:17;101794.75;;;25.71;100.00
23733;BME280;12047;53.450;-2.286;2023-08-20T20:15:19;101802.88;;;25.71;100.00
23733;BME280;12047;53.450;-2.286;2023-08-20T20:20:20;101797.25;;;25.66;100.00
23733;BME280;12047;53.450;-2.286;2023-08-20T20:25:21;101811.44;;;25.68;100.00
23733;BME280;12047;53.450;-2.286;2023-08-20T20:30:22;101796.63;;;25.70;100.00
23733;BME280;12047;53.450;-2.286;2023-08-20T20:35:22;101813.28;;;25.61;100.00
23733;BME280;12047;53.450;-2.286;2023-08-20T20:40:24;101812.66;;;25.13;100.00
23733;BME280;12047;53.450;-2.286;2023-08-20T20:45:25;101816.97;;;24.81;100.00
23733;BME280;12047;53.450;-2.286;2023-08-20T20:50:25;101811.34;;;24.89;100.00
23733;BME280;12047;53.450;-2.286;2023-08-20T20:55:26;101811.28;;;24.62;100.00
23733;BME280;12047;53.450;-2.286;2023-08-20T21:00:26;101825.50;;;24.77;100.00
23733;BME280;12047;53.450;-2.286;2023-08-20T21:05:26;101840.19;;;24.96;100.00
23733;BME280;12047;53.450;-2.286;2023-08-20T21:10:27;101835.16;;;24.93;100.00
23733;BME280;12047;53.450;-2.286;2023-08-20T21:15:28;101836.16;;;24.86;100.00
23733;BME280;12047;53.450;-2.286;2023-08-20T21:20:28;101839.53;;;24.33;100.00
23733;BME280;12047;53.450;-2.286;2023-08-20T21:25:29;101843.44;;;24.24;100.00
23733;BME280;12047;53.450;-2.286;2023-08-20T21:30:29;101851.13;;;24.75;100.00
23733;BME280;12047;53.450;-2.286;2023-08-20T21:35:30;101858.41;;;24.61;100.00
23733;BME280;12047;53.450;-2.286;2023-08-20T21:40:30;101863.06;;;24.33;100.00
23733;BME280;12047;53.450;-2.286;2023-08-20T21:45:33;101860.38;;;24.39;100.00
23733;BME280;12047;53.450;-2.286;2023-08-20T21:50:34;101859.78;;;24.44;100.00
23733;BME280;12047;53.450;-2.286;2023-08-20T21:55:34;101854.56;;;24.42;100.00
23733;BME280;12047;53.450;-2.286;2023-08-20T22:00:35;101857.03;;;24.37;100.00
23733;BME280;12047;53.450;-2.286;2023-08-20T22:05:36;101861.09;;;24.20;100.00
23733;BME280;12047;53.450;-2.286;2023-08-20T22:10:36;101852.28;;;24.12;100.00
23733;BME280;12047;53.450;-2.286;2023-08-20T22:15:37;101848.72;;;23.77;100.00
23733;BME280;12047;53.450;-2.286;2023-08-20T22:20:37;101854.34;;;23.75;100.00
23733;BME280;12047;53.450;-2.286;2023-08-20T22:25:38;101863.84;;;23.64;100.00
23733;BME280;12047;53.450;-2.286;2023-08-20T22:30:40;101874.22;;;23.89;100.00
23733;BME280;12047;53.450;-2.286;2023-08-20T22:35:48;101866.59;;;23.99;100.00
23733;BME280;12047;53.450;-2.286;2023-08-20T22:40:48;101856.81;;;23.49;100.00
23733;BME280;12047;53.450;-2.286;2023-08-20T22:45:49;101850.97;;;23.24;100.00
23733;BME280;12047;53.450;-2.286;2023-08-20T22:50:49;101855.22;;;23.54;100.00
23733;BME280;12047;53.450;-2.286;2023-08-20T22:55:51;101860.38;;;22.56;100.00
23733;BME280;12047;53.450;-2.286;2023-08-20T23:00:51;101862.50;;;22.75;100.00
23733;BME280;12047;53.450;-2.286;2023-08-20T23:05:52;101861.00;;;23.08;100.00
23733;BME280;12047;53.450;-2.286;2023-08-20T23:10:52;101858.81;;;23.61;100.00
23733;BME280;12047;53.450;-2.286;2023-08-20T23:15:53;101860.88;;;23.38;100.00
23733;BME280;12047;53.450;-2.286;2023-08-20T23:21:00;101868.81;;;23.39;100.00
23733;BME280;12047;53.450;-2.286;2023-08-20T23:26:00;101869.66;;;23.19;100.00
23733;BME280;12047;53.450;-2.286;2023-08-20T23:31:01;101856.44;;;22.73;100.00
23733;BME280;12047;53.450;-2.286;2023-08-20T23:36:03;101856.78;;;22.04;100.00
23733;BME280;12047;53.450;-2.286;2023-08-20T23:41:04;101856.34;;;21.78;100.00
23733;BME280;12047;53.450;-2.286;2023-08-20T23:46:04;101865.84;;;21.74;100.00
23733;BME280;12047;53.450;-2.286;2023-08-20T23:51:05;101869.91;;;22.52;100.00
23733;BME280;12047;53.450;-2.286;2023-08-20T23:56:06;101861.22;;;22.56;100.00
